createdAt,value
2022-08-28T00:18:34.422Z,1014.94
2022-08-28T00:47:03.633Z,1015
2022-08-28T01:15:40.596Z,1015.07
2022-08-28T01:44:19.824Z,1015.08
2022-08-28T02:12:46.642Z,1015.09
2022-08-28T02:41:32.258Z,1015.05
2022-08-28T03:10:05.047Z,1014.95
2022-08-28T03:38:51.092Z,1014.96
2022-08-28T04:07:38.854Z,1014.89
2022-08-28T04:36:27.673Z,1015.17
2022-08-28T05:04:57.342Z,1015.4
2022-08-28T05:33:42.916Z,1015.46
2022-08-28T06:02:24.152Z,1015.74
2022-08-28T06:31:25.968Z,1015.84
2022-08-28T06:59:52.453Z,1015.91
2022-08-28T07:28:49.918Z,1016.07
2022-08-28T07:57:24.312Z,1016.29
2022-08-28T08:25:41.244Z,1016.56
2022-08-28T08:54:24.938Z,1016.76
2022-08-28T09:23:14.349Z,1016.71
2022-08-28T09:51:33.043Z,1016.7
2022-08-28T10:20:01.719Z,1016.69
2022-08-28T10:48:42.555Z,1016.56
2022-08-28T11:17:37.329Z,1016.36
2022-08-28T11:46:15.766Z,1016.33
2022-08-28T12:14:42.557Z,1016.22
2022-08-28T12:43:08.218Z,1016.22
2022-08-28T13:11:43.478Z,1016.08
2022-08-28T13:40:59.735Z,1015.9
2022-08-28T14:08:49.488Z,1015.57
2022-08-28T14:37:21.920Z,1015.41
2022-08-28T15:05:48.018Z,1015.33
2022-08-28T15:34:16.190Z,1015.19
2022-08-28T16:02:55.121Z,1015.2
2022-08-28T16:31:29.758Z,1015.21
2022-08-28T16:59:55.308Z,1015.08
2022-08-28T17:28:06.944Z,1015.22
2022-08-28T17:56:36.847Z,1015.43
2022-08-28T18:24:54.831Z,1015.77
2022-08-28T18:53:23.036Z,1016.08
2022-08-28T19:21:46.207Z,1016.3
2022-08-28T19:50:19.928Z,1016.58
2022-08-28T20:18:52.069Z,1016.78
2022-08-28T20:47:26.051Z,1016.9
2022-08-28T21:16:07.606Z,1017.03
2022-08-28T21:44:52.844Z,1017.14
2022-08-28T22:13:26.502Z,1017.11
2022-08-28T22:42:05.737Z,1017.2
2022-08-28T23:10:59.766Z,1017.26
2022-08-28T23:39:05.910Z,1017.16
